Terminal Aerodrome Forecast
Issued by NWS Chicago, IL

Home | Current Version | Previous Version | Graphics & Text | Print | Product List | Glossary On
Versions: 1 2 3 4 5 6 7 8 9 10 11 12 13 14 15 16 17 18 19 20 21 22 23 24 25 26 27 28 29 30 31
251
FTUS43 KLOT 212320
TAFRFD
TAF
KRFD 212320Z 2200/2224 17014KT P6SM BKN060 BKN250 WS015/20045KT
     FM221000 18010KT P6SM VCSH SCT020 BKN040
      TEMPO 2212/2216 3SM -RA BR BKN013
     FM221800 34014G24KT 4SM -RA BR SCT008 OVC013
     FM222200 35010G20KT 6SM -SHRA SCT015 BKN045=

USA.gov is the U.S. government's official web portal to all federal, state and local government web resources and services.